DAL757 KATL-KPHX
Flight info
| Callsign | DAL757 |
|---|---|
| Flight time | N/A |
| Altitude | 30000 |
| Route | NASSA2 YAALL J14 KOMMA/N0482F320 J14 IRW J6 ZUN EAGUL6 |
| Aircraft | B753/M-SDE2E3FGHIJ3J4J7RWXY/LB1 |
Departure
| Time | 2026-05-05 22:46 |
|---|---|
| Airport | Hartsfield Jackson Atlanta International Airport (KATL) |
Arrival
| Time | N/A |
|---|---|
| Airport | Phoenix Sky Harbor International Airport (KPHX) |
| Time | Latitude | Longitude | Altitude | Speed | Heading |
|---|---|---|---|---|---|
| 2026-05-05 22:08 | 33.63834 | -84.43650 | 1013 ft | 0 kts | 91° |
| 2026-05-05 22:29 | 33.63834 | -84.43667 | 1013 ft | 2 kts | 90° |
| 2026-05-05 22:29 | 33.63835 | -84.43688 | 1014 ft | 2 kts | 90° |
| 2026-05-05 22:30 | 33.63835 | -84.43700 | 1014 ft | 1 kts | 91° |
| 2026-05-05 22:30 | 33.63831 | -84.43716 | 1014 ft | 2 kts | 42° |
| 2026-05-05 22:30 | 33.63820 | -84.43722 | 1014 ft | 0 kts | 4° |
| 2026-05-05 22:30 | 33.63815 | -84.43721 | 1014 ft | 1 kts | 359° |
| 2026-05-05 22:31 | 33.63813 | -84.43721 | 1014 ft | 0 kts | 360° |
| 2026-05-05 22:34 | 33.63814 | -84.43721 | 1014 ft | 0 kts | 360° |
| 2026-05-05 22:34 | 33.63834 | -84.43721 | 1014 ft | 6 kts | 360° |
| 2026-05-05 22:34 | 33.63895 | -84.43722 | 1014 ft | 9 kts | 0° |
| 2026-05-05 22:35 | 33.63953 | -84.43722 | 1014 ft | 7 kts | 0° |
| 2026-05-05 22:35 | 33.64001 | -84.43722 | 1014 ft | 6 kts | 0° |
| 2026-05-05 22:35 | 33.64036 | -84.43722 | 1014 ft | 4 kts | 0° |
| 2026-05-05 22:35 | 33.64081 | -84.43721 | 1015 ft | 10 kts | 0° |
| 2026-05-05 22:36 | 33.64181 | -84.43720 | 1015 ft | 16 kts | 0° |
| 2026-05-05 22:36 | 33.64292 | -84.43720 | 1015 ft | 15 kts | 0° |
| 2026-05-05 22:36 | 33.64389 | -84.43721 | 1015 ft | 13 kts | 359° |
| 2026-05-05 22:36 | 33.64461 | -84.43726 | 1015 ft | 11 kts | 353° |
| 2026-05-05 22:37 | 33.64524 | -84.43710 | 1014 ft | 9 kts | 47° |
| 2026-05-05 22:37 | 33.64541 | -84.43632 | 1013 ft | 11 kts | 88° |
| 2026-05-05 22:37 | 33.64542 | -84.43517 | 1011 ft | 16 kts | 90° |
| 2026-05-05 22:37 | 33.64542 | -84.43375 | 1008 ft | 17 kts | 90° |
| 2026-05-05 22:38 | 33.64542 | -84.43220 | 1005 ft | 18 kts | 90° |
| 2026-05-05 22:38 | 33.64542 | -84.43066 | 1004 ft | 17 kts | 90° |
| 2026-05-05 22:38 | 33.64542 | -84.42931 | 1002 ft | 16 kts | 90° |
| 2026-05-05 22:38 | 33.64541 | -84.42795 | 1000 ft | 18 kts | 91° |
| 2026-05-05 22:39 | 33.64541 | -84.42635 | 996 ft | 21 kts | 89° |
| 2026-05-05 22:39 | 33.64542 | -84.42455 | 989 ft | 22 kts | 90° |
| 2026-05-05 22:39 | 33.64539 | -84.42265 | 983 ft | 23 kts | 90° |
| 2026-05-05 22:39 | 33.64536 | -84.42070 | 976 ft | 23 kts | 92° |
| 2026-05-05 22:40 | 33.64535 | -84.41878 | 971 ft | 23 kts | 89° |
| 2026-05-05 22:40 | 33.64541 | -84.41710 | 971 ft | 15 kts | 88° |
| 2026-05-05 22:40 | 33.64542 | -84.41594 | 971 ft | 12 kts | 90° |
| 2026-05-05 22:40 | 33.64542 | -84.41501 | 971 ft | 9 kts | 90° |
| 2026-05-05 22:41 | 33.64542 | -84.41435 | 973 ft | 7 kts | 90° |
| 2026-05-05 22:41 | 33.64542 | -84.41377 | 974 ft | 8 kts | 90° |
| 2026-05-05 22:41 | 33.64542 | -84.41267 | 974 ft | 19 kts | 91° |
| 2026-05-05 22:41 | 33.64540 | -84.41071 | 977 ft | 28 kts | 90° |
| 2026-05-05 22:42 | 33.64544 | -84.40837 | 975 ft | 27 kts | 79° |
| 2026-05-05 22:42 | 33.64569 | -84.40654 | 975 ft | 11 kts | 86° |
| 2026-05-05 22:42 | 33.64595 | -84.40580 | 975 ft | 8 kts | 35° |
| 2026-05-05 22:42 | 33.64637 | -84.40569 | 976 ft | 5 kts | 357° |
| 2026-05-05 22:43 | 33.64671 | -84.40591 | 978 ft | 6 kts | 303° |
| 2026-05-05 22:43 | 33.64678 | -84.40627 | 979 ft | 3 kts | 271° |
| 2026-05-05 22:43 | 33.64679 | -84.40638 | 979 ft | 0 kts | 271° |
| 2026-05-05 22:44 | 33.64679 | -84.40640 | 979 ft | 0 kts | 271° |
| 2026-05-05 22:44 | 33.64679 | -84.40788 | 982 ft | 43 kts | 269° |
| 2026-05-05 22:45 | 33.64679 | -84.41349 | 979 ft | 96 kts | 269° |
| 2026-05-05 22:45 | 33.64680 | -84.42336 | 986 ft | 143 kts | 270° |
| 2026-05-05 22:45 | 33.64682 | -84.43628 | 1120 ft | 169 kts | 264° |
| 2026-05-05 22:45 | 33.64663 | -84.45077 | 1448 ft | 182 kts | 263° |
| 2026-05-05 22:46 | 33.64685 | -84.46535 | 2118 ft | 176 kts | 269° |
| 2026-05-05 22:46 | 33.64935 | -84.47973 | 2520 ft | 190 kts | 282° |
| 2026-05-05 22:46 | 33.65315 | -84.49573 | 2758 ft | 211 kts | 280° |
| 2026-05-05 22:46 | 33.65665 | -84.51237 | 3176 ft | 222 kts | 279° |
| 2026-05-05 22:47 | 33.66034 | -84.53051 | 3879 ft | 223 kts | 279° |
| 2026-05-05 22:47 | 33.66401 | -84.54944 | 4380 ft | 236 kts | 279° |
| 2026-05-05 22:47 | 33.66760 | -84.56818 | 5181 ft | 234 kts | 279° |
| 2026-05-05 22:47 | 33.67102 | -84.58739 | 5877 ft | 237 kts | 278° |
| 2026-05-05 22:48 | 33.67429 | -84.60683 | 6612 ft | 238 kts | 278° |
| 2026-05-05 22:48 | 33.67759 | -84.62646 | 7144 ft | 250 kts | 279° |
| 2026-05-05 22:48 | 33.68112 | -84.64728 | 7785 ft | 257 kts | 279° |
| 2026-05-05 22:48 | 33.68462 | -84.66787 | 8687 ft | 253 kts | 279° |
| 2026-05-05 22:49 | 33.68768 | -84.68597 | 9438 ft | 251 kts | 279° |
| 2026-05-05 22:49 | 33.69125 | -84.70711 | 9894 ft | 267 kts | 279° |
| 2026-05-05 22:49 | 33.69499 | -84.72925 | 10479 ft | 275 kts | 280° |
| 2026-05-05 22:49 | 33.69863 | -84.75240 | 10836 ft | 292 kts | 275° |
| 2026-05-05 22:50 | 33.69928 | -84.77745 | 11123 ft | 311 kts | 270° |
| 2026-05-05 22:50 | 33.69935 | -84.80424 | 11397 ft | 329 kts | 270° |
| 2026-05-05 22:50 | 33.69930 | -84.83240 | 11711 ft | 346 kts | 270° |
| 2026-05-05 22:50 | 33.69925 | -84.86147 | 12271 ft | 353 kts | 270° |
| 2026-05-05 22:51 | 33.69924 | -84.89090 | 13073 ft | 353 kts | 271° |
| 2026-05-05 22:51 | 33.69921 | -84.92060 | 13725 ft | 356 kts | 271° |
| 2026-05-05 22:51 | 33.69916 | -84.95057 | 14367 ft | 359 kts | 271° |
| 2026-05-05 22:51 | 33.69909 | -84.98059 | 14976 ft | 361 kts | 271° |
| 2026-05-05 22:52 | 33.69902 | -85.01073 | 15498 ft | 365 kts | 271° |
| 2026-05-05 22:52 | 33.69893 | -85.04134 | 16080 ft | 368 kts | 271° |
| 2026-05-05 22:52 | 33.69877 | -85.07245 | 16605 ft | 371 kts | 271° |
| 2026-05-05 22:52 | 33.69861 | -85.10362 | 17149 ft | 373 kts | 272° |
| 2026-05-05 22:53 | 33.69846 | -85.13487 | 17620 ft | 376 kts | 272° |
| 2026-05-05 22:53 | 33.69832 | -85.16619 | 18174 ft | 377 kts | 271° |
| 2026-05-05 22:53 | 33.69818 | -85.19795 | 18599 ft | 380 kts | 272° |
| 2026-05-05 22:53 | 33.69799 | -85.22982 | 19021 ft | 384 kts | 271° |
| 2026-05-05 22:54 | 33.69764 | -85.26244 | 19459 ft | 387 kts | 271° |
| 2026-05-05 22:54 | 33.69729 | -85.29490 | 19926 ft | 389 kts | 271° |
| 2026-05-05 22:54 | 33.69693 | -85.32725 | 20330 ft | 391 kts | 271° |
| 2026-05-05 22:54 | 33.69666 | -85.36015 | 20766 ft | 393 kts | 271° |
| 2026-05-05 22:55 | 33.69638 | -85.39305 | 21137 ft | 396 kts | 271° |
| 2026-05-05 22:55 | 33.69607 | -85.42619 | 21590 ft | 397 kts | 271° |
| 2026-05-05 22:55 | 33.69572 | -85.45956 | 21947 ft | 400 kts | 271° |
| 2026-05-05 22:55 | 33.69533 | -85.49293 | 22376 ft | 401 kts | 271° |
| 2026-05-05 22:56 | 33.69493 | -85.52665 | 22697 ft | 404 kts | 271° |
| 2026-05-05 22:56 | 33.69450 | -85.56027 | 23038 ft | 406 kts | 271° |
| 2026-05-05 22:56 | 33.69405 | -85.59413 | 23534 ft | 405 kts | 271° |
| 2026-05-05 22:56 | 33.69362 | -85.62813 | 23920 ft | 406 kts | 271° |
| 2026-05-05 22:57 | 33.69315 | -85.66218 | 24240 ft | 409 kts | 271° |
| 2026-05-05 22:57 | 33.69266 | -85.69643 | 24673 ft | 410 kts | 271° |
| 2026-05-05 22:57 | 33.69217 | -85.73029 | 25093 ft | 410 kts | 272° |
| 2026-05-05 22:57 | 33.69168 | -85.76486 | 25398 ft | 413 kts | 271° |
| 2026-05-05 22:58 | 33.69117 | -85.79925 | 25869 ft | 412 kts | 272° |
| 2026-05-05 22:58 | 33.69065 | -85.83415 | 26210 ft | 415 kts | 272° |
| 2026-05-05 22:58 | 33.69013 | -85.86842 | 26593 ft | 415 kts | 272° |
| 2026-05-05 22:58 | 33.68959 | -85.90292 | 26951 ft | 416 kts | 272° |
| 2026-05-05 22:59 | 33.68905 | -85.93753 | 27351 ft | 416 kts | 272° |
| 2026-05-05 22:59 | 33.68848 | -85.97208 | 27706 ft | 416 kts | 272° |
| 2026-05-05 22:59 | 33.68787 | -86.00680 | 27939 ft | 419 kts | 272° |
| 2026-05-05 22:59 | 33.68763 | -86.04205 | 28274 ft | 418 kts | 276° |
| 2026-05-05 23:00 | 33.69291 | -86.11152 | 29039 ft | 415 kts | 278° |
| 2026-05-05 23:00 | 33.69557 | -86.14555 | 29464 ft | 413 kts | 279° |
| 2026-05-05 23:00 | 33.69824 | -86.17940 | 29916 ft | 405 kts | 279° |
| 2026-05-05 23:01 | 33.70345 | -86.24613 | 29946 ft | 402 kts | 279° |
| 2026-05-05 23:01 | 33.70809 | -86.30541 | 29953 ft | 406 kts | 279° |
| 2026-05-05 23:02 | 33.71372 | -86.37845 | 29937 ft | 405 kts | 279° |
| 2026-05-05 23:02 | 33.71885 | -86.44550 | 29932 ft | 403 kts | 278° |
| 2026-05-05 23:03 | 33.72395 | -86.51277 | 29941 ft | 405 kts | 278° |
| 2026-05-05 23:03 | 33.72893 | -86.57974 | 29932 ft | 404 kts | 279° |
| 2026-05-05 23:04 | 33.73395 | -86.64726 | 29927 ft | 405 kts | 279° |
| 2026-05-05 23:04 | 33.73890 | -86.71436 | 29936 ft | 403 kts | 278° |
| 2026-05-05 23:05 | 33.74385 | -86.78136 | 29936 ft | 405 kts | 278° |
| 2026-05-05 23:05 | 33.74878 | -86.84903 | 29937 ft | 404 kts | 278° |
| 2026-05-05 23:06 | 33.75370 | -86.91643 | 29927 ft | 403 kts | 278° |
| 2026-05-05 23:06 | 33.75859 | -86.98339 | 29922 ft | 403 kts | 278° |
| 2026-05-05 23:07 | 33.76347 | -87.05102 | 30123 ft | 408 kts | 278° |
| 2026-05-05 23:07 | 33.76586 | -87.08482 | 30688 ft | 402 kts | 278° |
| 2026-05-05 23:07 | 33.76820 | -87.11780 | 31272 ft | 395 kts | 279° |
| 2026-05-05 23:08 | 33.77050 | -87.15048 | 31693 ft | 391 kts | 278° |
| 2026-05-05 23:08 | 33.77280 | -87.18296 | 31908 ft | 390 kts | 278° |
| 2026-05-05 23:08 | 33.77736 | -87.24809 | 31910 ft | 389 kts | 278° |
| 2026-05-05 23:09 | 33.78185 | -87.31279 | 31912 ft | 387 kts | 279° |
| 2026-05-05 23:09 | 33.78626 | -87.37691 | 31909 ft | 386 kts | 278° |
| 2026-05-05 23:10 | 33.79066 | -87.44119 | 31905 ft | 386 kts | 278° |
| 2026-05-05 23:10 | 33.79870 | -87.50429 | 31916 ft | 383 kts | 287° |
| 2026-05-05 23:11 | 33.81167 | -87.56660 | 31900 ft | 384 kts | 286° |
| 2026-05-05 23:11 | 33.82447 | -87.62828 | 31893 ft | 382 kts | 286° |
| 2026-05-05 23:12 | 33.83728 | -87.69022 | 31912 ft | 383 kts | 286° |
| 2026-05-05 23:12 | 33.85011 | -87.75226 | 31903 ft | 382 kts | 285° |
| 2026-05-05 23:13 | 33.86295 | -87.81442 | 31906 ft | 382 kts | 285° |
| 2026-05-05 23:13 | 33.87574 | -87.87653 | 31905 ft | 382 kts | 285° |
| 2026-05-05 23:14 | 33.88847 | -87.93858 | 31900 ft | 382 kts | 285° |
| 2026-05-05 23:14 | 33.90119 | -88.00063 | 31896 ft | 382 kts | 285° |
| 2026-05-05 23:15 | 33.91390 | -88.06279 | 31890 ft | 382 kts | 285° |
| 2026-05-05 23:15 | 33.92662 | -88.12526 | 31890 ft | 381 kts | 285° |
| 2026-05-05 23:16 | 33.93924 | -88.18737 | 31888 ft | 381 kts | 285° |
| 2026-05-05 23:16 | 33.95181 | -88.24940 | 31883 ft | 380 kts | 285° |
| 2026-05-05 23:17 | 33.96429 | -88.31114 | 31880 ft | 380 kts | 285° |
| 2026-05-05 23:17 | 33.97676 | -88.37300 | 31873 ft | 379 kts | 285° |
| 2026-05-05 23:18 | 33.98922 | -88.43501 | 31868 ft | 381 kts | 285° |
| 2026-05-05 23:18 | 34.00167 | -88.49687 | 31870 ft | 381 kts | 285° |
| 2026-05-05 23:19 | 34.01417 | -88.55908 | 31861 ft | 379 kts | 285° |
| 2026-05-05 23:19 | 34.02648 | -88.62064 | 31861 ft | 381 kts | 285° |
| 2026-05-05 23:20 | 34.03876 | -88.68240 | 31882 ft | 382 kts | 285° |
| 2026-05-05 23:20 | 34.05116 | -88.74488 | 31882 ft | 380 kts | 285° |
| 2026-05-05 23:21 | 34.06341 | -88.80710 | 31875 ft | 381 kts | 284° |
| 2026-05-05 23:21 | 34.07561 | -88.86929 | 31860 ft | 381 kts | 284° |
| 2026-05-05 23:22 | 34.08779 | -88.93143 | 31859 ft | 383 kts | 284° |
| 2026-05-05 23:22 | 34.10003 | -88.99401 | 31852 ft | 380 kts | 283° |
| 2026-05-05 23:23 | 34.11205 | -89.05564 | 31857 ft | 380 kts | 283° |
| 2026-05-05 23:23 | 34.12417 | -89.11791 | 31852 ft | 381 kts | 284° |
| 2026-05-05 23:24 | 34.13627 | -89.18020 | 31841 ft | 380 kts | 283° |
| 2026-05-05 23:24 | 34.14829 | -89.24226 | 31836 ft | 380 kts | 283° |
| 2026-05-05 23:25 | 34.16034 | -89.30469 | 31837 ft | 380 kts | 284° |
| 2026-05-05 23:25 | 34.17231 | -89.36687 | 31833 ft | 380 kts | 284° |
| 2026-05-05 23:26 | 34.18423 | -89.42896 | 31835 ft | 380 kts | 284° |
| 2026-05-05 23:26 | 34.19616 | -89.49126 | 31832 ft | 379 kts | 283° |
| 2026-05-05 23:27 | 34.20936 | -89.55281 | 31836 ft | 380 kts | 287° |
| 2026-05-05 23:27 | 34.22437 | -89.61417 | 31835 ft | 379 kts | 286° |
| 2026-05-05 23:28 | 34.23920 | -89.67516 | 31849 ft | 379 kts | 286° |
| 2026-05-05 23:28 | 34.25406 | -89.73647 | 31840 ft | 378 kts | 285° |
| 2026-05-05 23:29 | 34.26875 | -89.79731 | 31846 ft | 379 kts | 285° |
| 2026-05-05 23:29 | 34.28349 | -89.85851 | 31839 ft | 379 kts | 285° |
| 2026-05-05 23:30 | 34.29810 | -89.91928 | 31830 ft | 377 kts | 285° |
| 2026-05-05 23:30 | 34.31270 | -89.98022 | 31821 ft | 378 kts | 285° |
| 2026-05-05 23:31 | 34.32744 | -90.04182 | 31823 ft | 379 kts | 285° |
| 2026-05-05 23:31 | 34.34195 | -90.10265 | 31809 ft | 378 kts | 285° |
| 2026-05-05 23:32 | 34.35642 | -90.16351 | 31804 ft | 377 kts | 285° |
| 2026-05-05 23:32 | 34.37077 | -90.22386 | 31802 ft | 378 kts | 285° |
| 2026-05-05 23:33 | 34.38531 | -90.28477 | 31800 ft | 379 kts | 285° |
| 2026-05-05 23:33 | 34.39991 | -90.34613 | 31806 ft | 377 kts | 285° |
| 2026-05-05 23:34 | 34.41428 | -90.40695 | 31794 ft | 377 kts | 284° |
| 2026-05-05 23:34 | 34.42861 | -90.46788 | 31800 ft | 377 kts | 285° |
| 2026-05-05 23:35 | 34.44297 | -90.52908 | 31786 ft | 377 kts | 284° |
| 2026-05-05 23:35 | 34.45721 | -90.59028 | 31787 ft | 377 kts | 284° |
| 2026-05-05 23:36 | 34.47135 | -90.65105 | 31779 ft | 378 kts | 284° |
| 2026-05-05 23:36 | 34.48555 | -90.71243 | 31796 ft | 376 kts | 284° |
| 2026-05-05 23:37 | 34.49980 | -90.77404 | 31794 ft | 378 kts | 284° |
| 2026-05-05 23:37 | 34.51397 | -90.83508 | 31794 ft | 377 kts | 284° |
| 2026-05-05 23:38 | 34.52818 | -90.89645 | 31792 ft | 377 kts | 284° |
| 2026-05-05 23:38 | 34.54237 | -90.95776 | 31790 ft | 377 kts | 284° |
| 2026-05-05 23:39 | 34.55647 | -91.01890 | 31781 ft | 377 kts | 284° |
| 2026-05-05 23:39 | 34.57050 | -91.07994 | 31772 ft | 378 kts | 284° |
| 2026-05-05 23:40 | 34.58444 | -91.14089 | 31769 ft | 376 kts | 284° |
| 2026-05-05 23:40 | 34.59791 | -91.19992 | 31768 ft | 377 kts | 283° |
| 2026-05-05 23:41 | 34.61183 | -91.26137 | 31766 ft | 378 kts | 284° |
| 2026-05-05 23:41 | 34.62568 | -91.32255 | 31766 ft | 376 kts | 284° |
| 2026-05-05 23:42 | 34.63954 | -91.38384 | 31770 ft | 376 kts | 284° |
| 2026-05-05 23:42 | 34.65334 | -91.44523 | 31770 ft | 379 kts | 284° |
| 2026-05-05 23:43 | 34.66707 | -91.50642 | 31773 ft | 375 kts | 284° |
| 2026-05-05 23:43 | 34.68083 | -91.56776 | 31771 ft | 377 kts | 284° |
| 2026-05-05 23:44 | 34.69460 | -91.62928 | 31760 ft | 376 kts | 283° |
| 2026-05-05 23:44 | 34.70826 | -91.69034 | 31777 ft | 377 kts | 283° |
| 2026-05-05 23:45 | 34.72194 | -91.75176 | 31768 ft | 376 kts | 283° |
| 2026-05-05 23:45 | 34.73555 | -91.81298 | 31754 ft | 377 kts | 283° |
| 2026-05-05 23:46 | 34.74921 | -91.87460 | 31759 ft | 377 kts | 283° |
| 2026-05-05 23:46 | 34.76278 | -91.93587 | 31766 ft | 375 kts | 283° |
| 2026-05-05 23:47 | 34.77637 | -91.99751 | 31750 ft | 377 kts | 283° |
| 2026-05-05 23:47 | 34.78989 | -92.05894 | 31759 ft | 376 kts | 282° |
| 2026-05-05 23:48 | 34.80347 | -92.12060 | 31755 ft | 375 kts | 282° |
| 2026-05-05 23:48 | 34.81233 | -92.18248 | 31752 ft | 373 kts | 276° |
| 2026-05-05 23:49 | 34.81829 | -92.24499 | 31755 ft | 373 kts | 277° |
| 2026-05-05 23:49 | 34.82413 | -92.30792 | 31747 ft | 373 kts | 276° |
| 2026-05-05 23:50 | 34.82983 | -92.37062 | 31759 ft | 373 kts | 276° |
| 2026-05-05 23:50 | 34.83545 | -92.43320 | 31760 ft | 372 kts | 276° |
| 2026-05-05 23:51 | 34.84106 | -92.49629 | 31741 ft | 374 kts | 276° |
| 2026-05-05 23:51 | 34.84659 | -92.55907 | 31749 ft | 371 kts | 275° |
| 2026-05-05 23:52 | 34.85209 | -92.62176 | 31754 ft | 372 kts | 276° |
| 2026-05-05 23:52 | 34.85754 | -92.68412 | 31771 ft | 372 kts | 275° |
| 2026-05-05 23:53 | 34.86301 | -92.74704 | 31757 ft | 372 kts | 276° |
| 2026-05-05 23:53 | 34.86844 | -92.80946 | 31745 ft | 370 kts | 275° |
| 2026-05-05 23:54 | 34.87382 | -92.87218 | 31761 ft | 372 kts | 275° |
| 2026-05-05 23:54 | 34.87912 | -92.93438 | 31744 ft | 369 kts | 275° |
| 2026-05-05 23:55 | 34.88440 | -92.99671 | 31743 ft | 371 kts | 275° |
| 2026-05-05 23:55 | 34.88965 | -93.05876 | 31731 ft | 370 kts | 275° |
| 2026-05-05 23:56 | 34.89480 | -93.12066 | 31741 ft | 370 kts | 275° |
| 2026-05-05 23:56 | 34.89997 | -93.18267 | 31745 ft | 369 kts | 275° |
| 2026-05-05 23:57 | 34.90511 | -93.24475 | 31727 ft | 368 kts | 274° |
| 2026-05-05 23:57 | 34.91020 | -93.30700 | 31724 ft | 369 kts | 275° |
| 2026-05-05 23:58 | 34.91526 | -93.36931 | 31720 ft | 369 kts | 275° |
| 2026-05-05 23:58 | 34.92027 | -93.43122 | 31716 ft | 368 kts | 275° |
| 2026-05-05 23:59 | 34.92525 | -93.49304 | 31708 ft | 368 kts | 274° |
| 2026-05-05 23:59 | 34.93024 | -93.55544 | 31716 ft | 369 kts | 274° |
| 2026-05-06 00:00 | 34.93516 | -93.61744 | 31710 ft | 367 kts | 275° |
| 2026-05-06 00:00 | 34.94006 | -93.67944 | 31749 ft | 367 kts | 274° |
| 2026-05-06 00:01 | 34.94492 | -93.74153 | 31761 ft | 367 kts | 274° |
| 2026-05-06 00:01 | 34.94974 | -93.80328 | 31763 ft | 366 kts | 274° |
| 2026-05-06 00:02 | 34.95451 | -93.86484 | 31753 ft | 367 kts | 274° |
| 2026-05-06 00:02 | 34.95928 | -93.92676 | 31741 ft | 366 kts | 274° |
| 2026-05-06 00:03 | 34.96401 | -93.98882 | 31745 ft | 365 kts | 273° |
| 2026-05-06 00:03 | 34.96870 | -94.05035 | 31738 ft | 365 kts | 273° |
| 2026-05-06 00:04 | 34.97328 | -94.11122 | 31744 ft | 365 kts | 273° |
| 2026-05-06 00:04 | 34.97792 | -94.17289 | 31749 ft | 362 kts | 273° |
| 2026-05-06 00:05 | 34.98473 | -94.26468 | 31760 ft | 365 kts | 273° |
| 2026-05-06 00:06 | 34.98926 | -94.32628 | 31746 ft | 362 kts | 273° |
| 2026-05-06 00:06 | 34.99369 | -94.38716 | 31738 ft | 362 kts | 273° |
| 2026-05-06 00:07 | 34.99810 | -94.44828 | 31730 ft | 361 kts | 273° |
| 2026-05-06 00:07 | 35.00250 | -94.50970 | 31735 ft | 362 kts | 273° |
| 2026-05-06 00:08 | 35.00687 | -94.57085 | 31729 ft | 361 kts | 273° |
| 2026-05-06 00:08 | 35.01121 | -94.63197 | 31729 ft | 363 kts | 273° |
| 2026-05-06 00:09 | 35.01655 | -94.69283 | 31757 ft | 361 kts | 276° |
| 2026-05-06 00:09 | 35.02502 | -94.75327 | 31759 ft | 362 kts | 276° |
| 2026-05-06 00:10 | 35.03335 | -94.81410 | 31755 ft | 361 kts | 276° |
| 2026-05-06 00:10 | 35.04152 | -94.87412 | 31755 ft | 362 kts | 276° |
| 2026-05-06 00:11 | 35.04974 | -94.93476 | 31763 ft | 361 kts | 276° |
| 2026-05-06 00:11 | 35.05790 | -94.99521 | 31762 ft | 360 kts | 276° |
| 2026-05-06 00:12 | 35.06601 | -95.05561 | 31756 ft | 361 kts | 276° |
| 2026-05-06 00:12 | 35.07409 | -95.11597 | 31774 ft | 361 kts | 276° |
| 2026-05-06 00:13 | 35.08220 | -95.17671 | 31780 ft | 360 kts | 275° |
| 2026-05-06 00:13 | 35.09024 | -95.23723 | 31775 ft | 362 kts | 276° |
| 2026-05-06 00:14 | 35.09826 | -95.29787 | 31787 ft | 362 kts | 275° |
| 2026-05-06 00:14 | 35.10617 | -95.35782 | 31779 ft | 362 kts | 275° |
| 2026-05-06 00:15 | 35.11412 | -95.41846 | 31784 ft | 362 kts | 275° |
| 2026-05-06 00:15 | 35.12185 | -95.47878 | 31780 ft | 363 kts | 274° |
| 2026-05-06 00:16 | 35.12918 | -95.54007 | 31793 ft | 364 kts | 275° |
| 2026-05-06 00:16 | 35.13646 | -95.60118 | 31797 ft | 363 kts | 275° |
| 2026-05-06 00:17 | 35.14370 | -95.66213 | 31802 ft | 363 kts | 274° |
| 2026-05-06 00:17 | 35.15095 | -95.72333 | 31821 ft | 363 kts | 274° |
| 2026-05-06 00:18 | 35.15814 | -95.78442 | 31842 ft | 363 kts | 274° |
| 2026-05-06 00:18 | 35.16532 | -95.84570 | 31835 ft | 365 kts | 274° |
| 2026-05-06 00:19 | 35.17248 | -95.90704 | 31849 ft | 364 kts | 274° |
| 2026-05-06 00:19 | 35.17956 | -95.96798 | 31844 ft | 363 kts | 274° |
| 2026-05-06 00:20 | 35.18666 | -96.02929 | 31847 ft | 366 kts | 273° |
| 2026-05-06 00:20 | 35.19371 | -96.09055 | 31847 ft | 364 kts | 273° |
| 2026-05-06 00:21 | 35.20074 | -96.15196 | 31843 ft | 364 kts | 274° |
| 2026-05-06 00:21 | 35.20773 | -96.21330 | 31846 ft | 363 kts | 274° |
| 2026-05-06 00:22 | 35.21469 | -96.27445 | 31857 ft | 366 kts | 273° |
| 2026-05-06 00:22 | 35.22166 | -96.33602 | 31856 ft | 364 kts | 273° |
| 2026-05-06 00:23 | 35.22860 | -96.39762 | 31855 ft | 364 kts | 274° |
| 2026-05-06 00:23 | 35.23546 | -96.45869 | 31859 ft | 364 kts | 273° |
| 2026-05-06 00:24 | 35.24238 | -96.52071 | 31859 ft | 368 kts | 273° |
| 2026-05-06 00:24 | 35.24922 | -96.58226 | 31863 ft | 365 kts | 272° |
| 2026-05-06 00:25 | 35.25603 | -96.64382 | 31866 ft | 365 kts | 273° |
| 2026-05-06 00:25 | 35.26273 | -96.70477 | 31893 ft | 367 kts | 273° |
| 2026-05-06 00:26 | 35.26943 | -96.76591 | 31893 ft | 364 kts | 272° |
| 2026-05-06 00:26 | 35.27612 | -96.82723 | 31898 ft | 365 kts | 272° |
| 2026-05-06 00:27 | 35.28278 | -96.88859 | 31900 ft | 365 kts | 272° |
| 2026-05-06 00:27 | 35.28941 | -96.94988 | 31897 ft | 365 kts | 272° |
| 2026-05-06 00:28 | 35.29606 | -97.01182 | 31900 ft | 366 kts | 272° |
| 2026-05-06 00:28 | 35.30264 | -97.07348 | 31895 ft | 366 kts | 272° |
| 2026-05-06 00:29 | 35.30918 | -97.13497 | 31901 ft | 365 kts | 272° |
| 2026-05-06 00:29 | 35.31571 | -97.19669 | 31891 ft | 366 kts | 272° |
| 2026-05-06 00:30 | 35.32215 | -97.25790 | 31892 ft | 364 kts | 272° |
| 2026-05-06 00:30 | 35.32862 | -97.31968 | 31892 ft | 367 kts | 272° |
| 2026-05-06 00:31 | 35.33500 | -97.38088 | 31888 ft | 367 kts | 272° |
| 2026-05-06 00:31 | 35.34145 | -97.44292 | 31892 ft | 365 kts | 272° |
| 2026-05-06 00:32 | 35.34774 | -97.50392 | 31887 ft | 366 kts | 272° |
| 2026-05-06 00:32 | 35.35409 | -97.56575 | 31888 ft | 367 kts | 272° |
| 2026-05-06 00:33 | 35.35798 | -97.62736 | 31899 ft | 361 kts | 265° |
| 2026-05-06 00:33 | 35.35716 | -97.68858 | 31924 ft | 363 kts | 265° |
| 2026-05-06 00:34 | 35.35635 | -97.75034 | 31923 ft | 361 kts | 265° |
| 2026-05-06 00:34 | 35.35549 | -97.81178 | 31921 ft | 361 kts | 265° |
| 2026-05-06 00:35 | 35.35457 | -97.87337 | 31924 ft | 361 kts | 265° |
| 2026-05-06 00:35 | 35.35362 | -97.93494 | 31923 ft | 361 kts | 265° |
| 2026-05-06 00:36 | 35.35263 | -97.99602 | 31927 ft | 362 kts | 265° |
| 2026-05-06 00:36 | 35.35160 | -98.05809 | 31927 ft | 362 kts | 265° |
| 2026-05-06 00:37 | 35.35054 | -98.11983 | 31925 ft | 361 kts | 265° |
| 2026-05-06 00:37 | 35.34945 | -98.18105 | 31918 ft | 363 kts | 265° |
| 2026-05-06 00:38 | 35.34832 | -98.24302 | 31916 ft | 362 kts | 265° |
| 2026-05-06 00:38 | 35.34717 | -98.30424 | 31919 ft | 362 kts | 265° |
| 2026-05-06 00:39 | 35.34599 | -98.36591 | 31915 ft | 362 kts | 265° |
| 2026-05-06 00:39 | 35.34477 | -98.42773 | 31919 ft | 362 kts | 265° |
| 2026-05-06 00:40 | 35.34351 | -98.48955 | 31916 ft | 363 kts | 265° |
| 2026-05-06 00:40 | 35.34224 | -98.55090 | 31914 ft | 362 kts | 264° |
| 2026-05-06 00:41 | 35.34085 | -98.61240 | 31915 ft | 362 kts | 265° |